sensor_id;sensor_type;location;lat;lon;timestamp;P1;durP1;ratioP1;P2;durP2;ratioP2
69779;SDS011;57052;55.602;38.096;2023-06-22T00:00:56;21.17;;;11.57;;
69779;SDS011;57052;55.602;38.096;2023-06-22T00:03:25;19.75;;;11.70;;
69779;SDS011;57052;55.602;38.096;2023-06-22T00:05:51;19.48;;;11.23;;
69779;SDS011;57052;55.602;38.096;2023-06-22T00:08:18;20.60;;;11.15;;
69779;SDS011;57052;55.602;38.096;2023-06-22T00:10:44;21.20;;;10.85;;
69779;SDS011;57052;55.602;38.096;2023-06-22T00:13:11;19.80;;;11.00;;
69779;SDS011;57052;55.602;38.096;2023-06-22T00:15:38;23.05;;;11.27;;
69779;SDS011;57052;55.602;38.096;2023-06-22T00:18:05;20.98;;;11.23;;
69779;SDS011;57052;55.602;38.096;2023-06-22T00:20:32;21.88;;;11.95;;
69779;SDS011;57052;55.602;38.096;2023-06-22T00:22:58;20.20;;;11.00;;
69779;SDS011;57052;55.602;38.096;2023-06-22T00:25:25;25.30;;;11.93;;
69779;SDS011;57052;55.602;38.096;2023-06-22T00:27:51;21.15;;;11.52;;
69779;SDS011;57052;55.602;38.096;2023-06-22T00:30:17;21.88;;;12.13;;
69779;SDS011;57052;55.602;38.096;2023-06-22T00:32:44;26.30;;;11.25;;
69779;SDS011;57052;55.602;38.096;2023-06-22T00:35:14;30.92;;;12.07;;
69779;SDS011;57052;55.602;38.096;2023-06-22T00:37:39;26.05;;;11.65;;
69779;SDS011;57052;55.602;38.096;2023-06-22T00:40:08;20.52;;;11.05;;
69779;SDS011;57052;55.602;38.096;2023-06-22T00:42:37;26.33;;;11.73;;
69779;SDS011;57052;55.602;38.096;2023-06-22T00:45:05;29.45;;;12.68;;
69779;SDS011;57052;55.602;38.096;2023-06-22T00:47:32;25.60;;;12.48;;
69779;SDS011;57052;55.602;38.096;2023-06-22T00:50:00;26.80;;;12.68;;
69779;SDS011;57052;55.602;38.096;2023-06-22T00:52:25;25.38;;;12.77;;
69779;SDS011;57052;55.602;38.096;2023-06-22T00:54:55;26.10;;;12.85;;
69779;SDS011;57052;55.602;38.096;2023-06-22T00:57:23;25.75;;;12.50;;
69779;SDS011;57052;55.602;38.096;2023-06-22T00:59:53;26.33;;;12.15;;
69779;SDS011;57052;55.602;38.096;2023-06-22T01:02:20;28.05;;;13.10;;
69779;SDS011;57052;55.602;38.096;2023-06-22T01:04:46;27.48;;;12.63;;
69779;SDS011;57052;55.602;38.096;2023-06-22T01:07:21;24.70;;;12.82;;
69779;SDS011;57052;55.602;38.096;2023-06-22T01:09:59;30.30;;;12.93;;
69779;SDS011;57052;55.602;38.096;2023-06-22T01:12:58;23.00;;;12.18;;
69779;SDS011;57052;55.602;38.096;2023-06-22T01:15:29;29.05;;;12.70;;
69779;SDS011;57052;55.602;38.096;2023-06-22T01:18:05;25.90;;;12.45;;
69779;SDS011;57052;55.602;38.096;2023-06-22T01:20:34;22.60;;;11.95;;
69779;SDS011;57052;55.602;38.096;2023-06-22T01:23:09;21.42;;;11.70;;
69779;SDS011;57052;55.602;38.096;2023-06-22T01:26:03;22.70;;;11.38;;
69779;SDS011;57052;55.602;38.096;2023-06-22T01:31:23;20.73;;;11.55;;
69779;SDS011;57052;55.602;38.096;2023-06-22T01:33:54;24.77;;;11.93;;
69779;SDS011;57052;55.602;38.096;2023-06-22T01:36:22;25.60;;;12.10;;
69779;SDS011;57052;55.602;38.096;2023-06-22T01:38:49;24.05;;;12.30;;
69779;SDS011;57052;55.602;38.096;2023-06-22T01:41:16;23.50;;;11.85;;
69779;SDS011;57052;55.602;38.096;2023-06-22T01:43:42;24.00;;;11.57;;
69779;SDS011;57052;55.602;38.096;2023-06-22T01:46:10;28.55;;;13.25;;
69779;SDS011;57052;55.602;38.096;2023-06-22T01:48:37;19.25;;;11.07;;
69779;SDS011;57052;55.602;38.096;2023-06-22T01:51:04;22.88;;;11.77;;
69779;SDS011;57052;55.602;38.096;2023-06-22T01:53:30;24.38;;;12.00;;
69779;SDS011;57052;55.602;38.096;2023-06-22T01:55:56;32.92;;;13.00;;
69779;SDS011;57052;55.602;38.096;2023-06-22T01:58:24;28.52;;;11.68;;
69779;SDS011;57052;55.602;38.096;2023-06-22T02:01:13;27.00;;;12.07;;
69779;SDS011;57052;55.602;38.096;2023-06-22T02:03:43;28.63;;;11.82;;
69779;SDS011;57052;55.602;38.096;2023-06-22T02:06:14;22.05;;;11.48;;
69779;SDS011;57052;55.602;38.096;2023-06-22T02:08:56;24.20;;;11.02;;
69779;SDS011;57052;55.602;38.096;2023-06-22T02:11:26;20.83;;;11.57;;
69779;SDS011;57052;55.602;38.096;2023-06-22T02:13:54;24.17;;;11.57;;
69779;SDS011;57052;55.602;38.096;2023-06-22T02:16:22;24.83;;;11.48;;
69779;SDS011;57052;55.602;38.096;2023-06-22T02:18:49;27.23;;;11.15;;
69779;SDS011;57052;55.602;38.096;2023-06-22T02:21:21;21.15;;;11.82;;
69779;SDS011;57052;55.602;38.096;2023-06-22T02:23:47;21.92;;;11.38;;
69779;SDS011;57052;55.602;38.096;2023-06-22T02:26:13;25.45;;;11.82;;
69779;SDS011;57052;55.602;38.096;2023-06-22T02:28:41;25.35;;;12.55;;
69779;SDS011;57052;55.602;38.096;2023-06-22T02:31:06;23.60;;;12.20;;
69779;SDS011;57052;55.602;38.096;2023-06-22T02:33:32;19.73;;;10.40;;
69779;SDS011;57052;55.602;38.096;2023-06-22T02:35:58;23.20;;;11.18;;
69779;SDS011;57052;55.602;38.096;2023-06-22T02:38:23;22.25;;;11.30;;
69779;SDS011;57052;55.602;38.096;2023-06-22T02:40:49;19.33;;;10.82;;
69779;SDS011;57052;55.602;38.096;2023-06-22T02:43:15;19.05;;;11.07;;
69779;SDS011;57052;55.602;38.096;2023-06-22T02:45:41;19.30;;;10.45;;
69779;SDS011;57052;55.602;38.096;2023-06-22T02:48:07;24.63;;;10.60;;
69779;SDS011;57052;55.602;38.096;2023-06-22T02:50:33;18.77;;;9.80;;
69779;SDS011;57052;55.602;38.096;2023-06-22T02:52:58;18.30;;;11.00;;
69779;SDS011;57052;55.602;38.096;2023-06-22T02:55:24;18.92;;;9.52;;
69779;SDS011;57052;55.602;38.096;2023-06-22T02:57:50;19.58;;;9.77;;
69779;SDS011;57052;55.602;38.096;2023-06-22T03:00:18;20.77;;;10.27;;
69779;SDS011;57052;55.602;38.096;2023-06-22T03:02:45;19.40;;;10.32;;
69779;SDS011;57052;55.602;38.096;2023-06-22T03:05:12;18.92;;;9.32;;
69779;SDS011;57052;55.602;38.096;2023-06-22T03:07:46;20.85;;;10.15;;
69779;SDS011;57052;55.602;38.096;2023-06-22T03:10:12;19.52;;;10.18;;
69779;SDS011;57052;55.602;38.096;2023-06-22T03:12:40;20.73;;;10.35;;
69779;SDS011;57052;55.602;38.096;2023-06-22T03:15:06;26.00;;;10.60;;
69779;SDS011;57052;55.602;38.096;2023-06-22T03:17:34;22.42;;;9.85;;
69779;SDS011;57052;55.602;38.096;2023-06-22T03:20:01;20.60;;;10.68;;
69779;SDS011;57052;55.602;38.096;2023-06-22T03:22:34;21.65;;;9.98;;
69779;SDS011;57052;55.602;38.096;2023-06-22T03:25:01;22.73;;;10.38;;
69779;SDS011;57052;55.602;38.096;2023-06-22T03:27:30;21.13;;;9.85;;
69779;SDS011;57052;55.602;38.096;2023-06-22T03:29:57;18.45;;;10.20;;
69779;SDS011;57052;55.602;38.096;2023-06-22T03:32:23;16.65;;;9.50;;
69779;SDS011;57052;55.602;38.096;2023-06-22T03:34:48;15.93;;;8.55;;
69779;SDS011;57052;55.602;38.096;2023-06-22T03:37:14;19.45;;;8.85;;
69779;SDS011;57052;55.602;38.096;2023-06-22T03:39:43;17.10;;;8.60;;
69779;SDS011;57052;55.602;38.096;2023-06-22T03:42:08;13.90;;;7.88;;
69779;SDS011;57052;55.602;38.096;2023-06-22T03:44:35;15.55;;;7.78;;
69779;SDS011;57052;55.602;38.096;2023-06-22T03:47:02;14.93;;;7.32;;
69779;SDS011;57052;55.602;38.096;2023-06-22T03:49:29;14.02;;;6.80;;
69779;SDS011;57052;55.602;38.096;2023-06-22T03:51:55;11.85;;;6.43;;
69779;SDS011;57052;55.602;38.096;2023-06-22T03:54:21;11.55;;;6.25;;
69779;SDS011;57052;55.602;38.096;2023-06-22T03:56:46;9.20;;;5.63;;
69779;SDS011;57052;55.602;38.096;2023-06-22T03:59:12;12.93;;;6.38;;
69779;SDS011;57052;55.602;38.096;2023-06-22T04:01:38;12.07;;;5.97;;
69779;SDS011;57052;55.602;38.096;2023-06-22T04:04:03;14.13;;;6.90;;
69779;SDS011;57052;55.602;38.096;2023-06-22T04:06:29;12.98;;;6.53;;
69779;SDS011;57052;55.602;38.096;2023-06-22T04:08:55;12.93;;;6.28;;
69779;SDS011;57052;55.602;38.096;2023-06-22T04:11:20;13.70;;;6.63;;
69779;SDS011;57052;55.602;38.096;2023-06-22T04:13:46;16.27;;;7.32;;
69779;SDS011;57052;55.602;38.096;2023-06-22T04:16:13;17.60;;;7.50;;
69779;SDS011;57052;55.602;38.096;2023-06-22T04:18:39;15.45;;;7.60;;
69779;SDS011;57052;55.602;38.096;2023-06-22T04:21:05;18.90;;;8.30;;
69779;SDS011;57052;55.602;38.096;2023-06-22T04:23:30;15.07;;;7.20;;
69779;SDS011;57052;55.602;38.096;2023-06-22T04:25:56;21.00;;;7.65;;
69779;SDS011;57052;55.602;38.096;2023-06-22T04:28:22;15.93;;;7.78;;
69779;SDS011;57052;55.602;38.096;2023-06-22T04:30:48;23.83;;;7.20;;
69779;SDS011;57052;55.602;38.096;2023-06-22T04:33:16;15.30;;;7.22;;
69779;SDS011;57052;55.602;38.096;2023-06-22T04:35:44;15.35;;;7.97;;
69779;SDS011;57052;55.602;38.096;2023-06-22T04:38:11;20.05;;;7.90;;
69779;SDS011;57052;55.602;38.096;2023-06-22T04:40:39;14.80;;;7.57;;
69779;SDS011;57052;55.602;38.096;2023-06-22T04:43:05;21.10;;;8.30;;
69779;SDS011;57052;55.602;38.096;2023-06-22T04:45:32;18.55;;;8.45;;
69779;SDS011;57052;55.602;38.096;2023-06-22T04:47:58;15.73;;;7.85;;
69779;SDS011;57052;55.602;38.096;2023-06-22T04:50:23;14.07;;;8.30;;
69779;SDS011;57052;55.602;38.096;2023-06-22T04:52:50;20.00;;;8.23;;
69779;SDS011;57052;55.602;38.096;2023-06-22T04:55:16;13.60;;;7.43;;
69779;SDS011;57052;55.602;38.096;2023-06-22T04:57:44;13.93;;;7.68;;
69779;SDS011;57052;55.602;38.096;2023-06-22T05:00:14;17.92;;;7.90;;
69779;SDS011;57052;55.602;38.096;2023-06-22T05:02:42;14.48;;;7.45;;
69779;SDS011;57052;55.602;38.096;2023-06-22T05:05:10;18.48;;;6.90;;
69779;SDS011;57052;55.602;38.096;2023-06-22T05:07:39;14.48;;;6.47;;
69779;SDS011;57052;55.602;38.096;2023-06-22T05:10:08;15.10;;;6.38;;
69779;SDS011;57052;55.602;38.096;2023-06-22T05:12:38;18.63;;;7.63;;
69779;SDS011;57052;55.602;38.096;2023-06-22T05:15:05;16.45;;;7.75;;
69779;SDS011;57052;55.602;38.096;2023-06-22T05:17:35;15.20;;;7.15;;
69779;SDS011;57052;55.602;38.096;2023-06-22T05:20:02;14.25;;;6.72;;
69779;SDS011;57052;55.602;38.096;2023-06-22T05:22:31;17.15;;;6.80;;
69779;SDS011;57052;55.602;38.096;2023-06-22T05:24:57;14.05;;;6.38;;
69779;SDS011;57052;55.602;38.096;2023-06-22T05:27:23;15.55;;;6.65;;
69779;SDS011;57052;55.602;38.096;2023-06-22T05:29:48;17.80;;;6.97;;
69779;SDS011;57052;55.602;38.096;2023-06-22T05:32:14;9.85;;;5.50;;
69779;SDS011;57052;55.602;38.096;2023-06-22T05:34:40;14.63;;;6.03;;
69779;SDS011;57052;55.602;38.096;2023-06-22T05:37:05;12.45;;;4.50;;
69779;SDS011;57052;55.602;38.096;2023-06-22T05:39:31;12.13;;;4.90;;
69779;SDS011;57052;55.602;38.096;2023-06-22T05:41:57;10.20;;;4.60;;
69779;SDS011;57052;55.602;38.096;2023-06-22T05:44:22;7.00;;;4.35;;
69779;SDS011;57052;55.602;38.096;2023-06-22T05:46:48;8.43;;;4.75;;
69779;SDS011;57052;55.602;38.096;2023-06-22T05:49:15;10.05;;;4.35;;
69779;SDS011;57052;55.602;38.096;2023-06-22T05:51:42;12.75;;;4.72;;
69779;SDS011;57052;55.602;38.096;2023-06-22T05:54:08;9.80;;;4.60;;
69779;SDS011;57052;55.602;38.096;2023-06-22T05:56:34;9.48;;;4.15;;
69779;SDS011;57052;55.602;38.096;2023-06-22T05:59:00;11.57;;;4.80;;
69779;SDS011;57052;55.602;38.096;2023-06-22T06:01:26;9.32;;;4.40;;
69779;SDS011;57052;55.602;38.096;2023-06-22T06:03:51;11.80;;;4.45;;
69779;SDS011;57052;55.602;38.096;2023-06-22T06:06:18;9.38;;;4.13;;
69779;SDS011;57052;55.602;38.096;2023-06-22T06:08:46;9.35;;;4.50;;
69779;SDS011;57052;55.602;38.096;2023-06-22T06:11:12;10.32;;;4.55;;
69779;SDS011;57052;55.602;38.096;2023-06-22T06:13:38;10.90;;;3.92;;
69779;SDS011;57052;55.602;38.096;2023-06-22T06:16:03;8.38;;;4.25;;
69779;SDS011;57052;55.602;38.096;2023-06-22T06:18:30;10.77;;;3.83;;
69779;SDS011;57052;55.602;38.096;2023-06-22T06:20:56;7.32;;;4.13;;
69779;SDS011;57052;55.602;38.096;2023-06-22T06:23:21;9.00;;;4.35;;
69779;SDS011;57052;55.602;38.096;2023-06-22T06:25:47;7.70;;;4.10;;
69779;SDS011;57052;55.602;38.096;2023-06-22T06:28:13;12.38;;;4.07;;
69779;SDS011;57052;55.602;38.096;2023-06-22T06:30:38;7.90;;;4.13;;
69779;SDS011;57052;55.602;38.096;2023-06-22T06:33:04;10.52;;;3.95;;
69779;SDS011;57052;55.602;38.096;2023-06-22T06:35:34;9.57;;;4.10;;
69779;SDS011;57052;55.602;38.096;2023-06-22T06:38:00;7.82;;;4.10;;
69779;SDS011;57052;55.602;38.096;2023-06-22T06:40:26;10.13;;;3.92;;
69779;SDS011;57052;55.602;38.096;2023-06-22T06:42:51;8.05;;;3.70;;
69779;SDS011;57052;55.602;38.096;2023-06-22T06:45:18;9.38;;;3.60;;
69779;SDS011;57052;55.602;38.096;2023-06-22T06:47:45;7.22;;;3.95;;
69779;SDS011;57052;55.602;38.096;2023-06-22T06:50:12;7.72;;;3.47;;
69779;SDS011;57052;55.602;38.096;2023-06-22T06:52:38;10.13;;;3.90;;
69779;SDS011;57052;55.602;38.096;2023-06-22T06:55:04;9.65;;;3.65;;
69779;SDS011;57052;55.602;38.096;2023-06-22T06:57:34;10.80;;;3.80;;
69779;SDS011;57052;55.602;38.096;2023-06-22T07:00:00;8.35;;;4.00;;
69779;SDS011;57052;55.602;38.096;2023-06-22T07:02:26;6.65;;;3.90;;
69779;SDS011;57052;55.602;38.096;2023-06-22T07:04:55;6.80;;;3.75;;
69779;SDS011;57052;55.602;38.096;2023-06-22T07:07:21;10.00;;;3.83;;
69779;SDS011;57052;55.602;38.096;2023-06-22T07:09:46;6.88;;;3.67;;
69779;SDS011;57052;55.602;38.096;2023-06-22T07:12:12;10.85;;;3.83;;
69779;SDS011;57052;55.602;38.096;2023-06-22T07:14:38;7.03;;;3.45;;
69779;SDS011;57052;55.602;38.096;2023-06-22T07:17:04;6.97;;;3.30;;
69779;SDS011;57052;55.602;38.096;2023-06-22T07:19:30;8.20;;;3.83;;
69779;SDS011;57052;55.602;38.096;2023-06-22T07:21:56;7.55;;;3.45;;
69779;SDS011;57052;55.602;38.096;2023-06-22T07:24:22;9.13;;;3.72;;
69779;SDS011;57052;55.602;38.096;2023-06-22T07:26:48;6.93;;;3.38;;
69779;SDS011;57052;55.602;38.096;2023-06-22T07:29:16;9.60;;;4.00;;
69779;SDS011;57052;55.602;38.096;2023-06-22T07:31:42;8.98;;;3.25;;
69779;SDS011;57052;55.602;38.096;2023-06-22T07:34:08;7.97;;;4.10;;
69779;SDS011;57052;55.602;38.096;2023-06-22T07:36:34;9.52;;;4.57;;
69779;SDS011;57052;55.602;38.096;2023-06-22T07:39:02;6.80;;;3.50;;
69779;SDS011;57052;55.602;38.096;2023-06-22T07:41:29;5.95;;;3.17;;
69779;SDS011;57052;55.602;38.096;2023-06-22T07:43:55;6.28;;;2.85;;
69779;SDS011;57052;55.602;38.096;2023-06-22T07:46:20;6.68;;;2.92;;
69779;SDS011;57052;55.602;38.096;2023-06-22T07:48:47;8.30;;;2.97;;
69779;SDS011;57052;55.602;38.096;2023-06-22T07:51:13;6.78;;;3.10;;
69779;SDS011;57052;55.602;38.096;2023-06-22T07:53:40;6.57;;;2.80;;
69779;SDS011;57052;55.602;38.096;2023-06-22T07:56:06;6.20;;;2.78;;
69779;SDS011;57052;55.602;38.096;2023-06-22T07:58:35;17.23;;;4.45;;
69779;SDS011;57052;55.602;38.096;2023-06-22T08:01:01;6.70;;;2.92;;
69779;SDS011;57052;55.602;38.096;2023-06-22T08:03:26;7.38;;;3.13;;
69779;SDS011;57052;55.602;38.096;2023-06-22T08:05:52;6.80;;;3.20;;
69779;SDS011;57052;55.602;38.096;2023-06-22T08:08:18;5.75;;;3.13;;
69779;SDS011;57052;55.602;38.096;2023-06-22T08:10:43;4.75;;;2.38;;
69779;SDS011;57052;55.602;38.096;2023-06-22T08:13:09;5.85;;;2.63;;
69779;SDS011;57052;55.602;38.096;2023-06-22T08:15:35;5.25;;;2.80;;
69779;SDS011;57052;55.602;38.096;2023-06-22T08:18:01;8.68;;;3.20;;
69779;SDS011;57052;55.602;38.096;2023-06-22T08:20:26;7.35;;;2.70;;
69779;SDS011;57052;55.602;38.096;2023-06-22T08:22:52;4.30;;;2.58;;
69779;SDS011;57052;55.602;38.096;2023-06-22T08:25:19;5.50;;;2.97;;
69779;SDS011;57052;55.602;38.096;2023-06-22T08:27:46;6.15;;;2.92;;
69779;SDS011;57052;55.602;38.096;2023-06-22T08:30:13;11.65;;;8.07;;
69779;SDS011;57052;55.602;38.096;2023-06-22T08:32:39;7.20;;;3.08;;
69779;SDS011;57052;55.602;38.096;2023-06-22T08:35:05;6.68;;;3.05;;
69779;SDS011;57052;55.602;38.096;2023-06-22T08:37:33;6.72;;;3.30;;
69779;SDS011;57052;55.602;38.096;2023-06-22T08:40:01;7.00;;;2.90;;
69779;SDS011;57052;55.602;38.096;2023-06-22T08:42:34;7.20;;;3.17;;
69779;SDS011;57052;55.602;38.096;2023-06-22T08:45:00;6.95;;;3.17;;
69779;SDS011;57052;55.602;38.096;2023-06-22T08:47:27;8.85;;;3.55;;
69779;SDS011;57052;55.602;38.096;2023-06-22T08:49:53;7.25;;;3.17;;
69779;SDS011;57052;55.602;38.096;2023-06-22T08:52:19;7.93;;;3.35;;
69779;SDS011;57052;55.602;38.096;2023-06-22T08:54:45;5.30;;;3.00;;
69779;SDS011;57052;55.602;38.096;2023-06-22T08:57:11;6.85;;;3.38;;
69779;SDS011;57052;55.602;38.096;2023-06-22T08:59:37;6.50;;;3.08;;
69779;SDS011;57052;55.602;38.096;2023-06-22T09:02:02;8.00;;;3.45;;
69779;SDS011;57052;55.602;38.096;2023-06-22T09:04:28;6.82;;;3.47;;
69779;SDS011;57052;55.602;38.096;2023-06-22T09:06:54;11.70;;;3.28;;
69779;SDS011;57052;55.602;38.096;2023-06-22T09:09:20;7.60;;;3.25;;
69779;SDS011;57052;55.602;38.096;2023-06-22T09:11:46;7.75;;;3.60;;
69779;SDS011;57052;55.602;38.096;2023-06-22T09:14:12;6.68;;;3.72;;
69779;SDS011;57052;55.602;38.096;2023-06-22T09:16:38;7.00;;;3.05;;
69779;SDS011;57052;55.602;38.096;2023-06-22T09:19:04;6.03;;;3.63;;
69779;SDS011;57052;55.602;38.096;2023-06-22T09:21:29;6.78;;;3.42;;
69779;SDS011;57052;55.602;38.096;2023-06-22T09:23:56;9.65;;;3.33;;
69779;SDS011;57052;55.602;38.096;2023-06-22T09:26:22;6.68;;;3.40;;
69779;SDS011;57052;55.602;38.096;2023-06-22T09:28:49;6.25;;;2.90;;
69779;SDS011;57052;55.602;38.096;2023-06-22T09:31:15;6.75;;;3.03;;
69779;SDS011;57052;55.602;38.096;2023-06-22T09:33:41;8.52;;;3.08;;
69779;SDS011;57052;55.602;38.096;2023-06-22T09:36:07;6.85;;;3.10;;
69779;SDS011;57052;55.602;38.096;2023-06-22T09:38:36;7.60;;;3.10;;
69779;SDS011;57052;55.602;38.096;2023-06-22T09:41:03;9.18;;;3.13;;
69779;SDS011;57052;55.602;38.096;2023-06-22T09:43:29;6.20;;;3.10;;
69779;SDS011;57052;55.602;38.096;2023-06-22T09:45:56;6.38;;;3.05;;
69779;SDS011;57052;55.602;38.096;2023-06-22T09:48:22;5.78;;;2.97;;
69779;SDS011;57052;55.602;38.096;2023-06-22T09:50:47;5.18;;;3.05;;
69779;SDS011;57052;55.602;38.096;2023-06-22T09:53:13;7.53;;;2.95;;
69779;SDS011;57052;55.602;38.096;2023-06-22T09:55:39;6.30;;;3.00;;
69779;SDS011;57052;55.602;38.096;2023-06-22T09:58:05;5.20;;;3.30;;
69779;SDS011;57052;55.602;38.096;2023-06-22T10:00:30;9.32;;;3.38;;
69779;SDS011;57052;55.602;38.096;2023-06-22T10:02:56;5.68;;;2.90;;
69779;SDS011;57052;55.602;38.096;2023-06-22T10:05:22;5.22;;;2.85;;
69779;SDS011;57052;55.602;38.096;2023-06-22T10:07:48;7.80;;;3.30;;
69779;SDS011;57052;55.602;38.096;2023-06-22T10:10:14;7.18;;;3.20;;
69779;SDS011;57052;55.602;38.096;2023-06-22T10:12:47;5.90;;;3.22;;
69779;SDS011;57052;55.602;38.096;2023-06-22T10:15:19;5.80;;;3.30;;
69779;SDS011;57052;55.602;38.096;2023-06-22T10:17:46;8.32;;;3.00;;
69779;SDS011;57052;55.602;38.096;2023-06-22T10:20:12;6.28;;;3.10;;
69779;SDS011;57052;55.602;38.096;2023-06-22T10:22:39;5.13;;;2.88;;
69779;SDS011;57052;55.602;38.096;2023-06-22T10:25:09;6.22;;;3.13;;
69779;SDS011;57052;55.602;38.096;2023-06-22T10:27:36;5.97;;;2.72;;
69779;SDS011;57052;55.602;38.096;2023-06-22T10:30:05;5.88;;;3.25;;
69779;SDS011;57052;55.602;38.096;2023-06-22T10:32:35;6.70;;;2.92;;
69779;SDS011;57052;55.602;38.096;2023-06-22T10:35:02;6.53;;;3.35;;
69779;SDS011;57052;55.602;38.096;2023-06-22T10:37:31;8.10;;;3.03;;
69779;SDS011;57052;55.602;38.096;2023-06-22T10:39:57;6.72;;;2.95;;
69779;SDS011;57052;55.602;38.096;2023-06-22T10:42:23;3.90;;;2.70;;
69779;SDS011;57052;55.602;38.096;2023-06-22T10:44:49;4.13;;;2.70;;
69779;SDS011;57052;55.602;38.096;2023-06-22T10:47:14;4.60;;;2.80;;
69779;SDS011;57052;55.602;38.096;2023-06-22T10:49:40;8.02;;;3.10;;
69779;SDS011;57052;55.602;38.096;2023-06-22T10:52:07;7.63;;;2.90;;
69779;SDS011;57052;55.602;38.096;2023-06-22T10:54:33;5.75;;;3.25;;
69779;SDS011;57052;55.602;38.096;2023-06-22T10:57:00;6.00;;;2.80;;
69779;SDS011;57052;55.602;38.096;2023-06-22T10:59:26;5.80;;;2.90;;
69779;SDS011;57052;55.602;38.096;2023-06-22T11:01:54;6.63;;;3.38;;
69779;SDS011;57052;55.602;38.096;2023-06-22T11:04:21;6.22;;;3.28;;
69779;SDS011;57052;55.602;38.096;2023-06-22T11:06:47;6.25;;;3.15;;
69779;SDS011;57052;55.602;38.096;2023-06-22T11:09:13;5.10;;;2.72;;
69779;SDS011;57052;55.602;38.096;2023-06-22T11:11:43;5.43;;;3.30;;
69779;SDS011;57052;55.602;38.096;2023-06-22T11:14:10;4.78;;;3.17;;
69779;SDS011;57052;55.602;38.096;2023-06-22T11:16:35;8.70;;;3.25;;
69779;SDS011;57052;55.602;38.096;2023-06-22T11:19:01;6.72;;;3.10;;
69779;SDS011;57052;55.602;38.096;2023-06-22T11:21:28;6.75;;;3.40;;
69779;SDS011;57052;55.602;38.096;2023-06-22T11:23:54;7.13;;;3.40;;
69779;SDS011;57052;55.602;38.096;2023-06-22T11:26:20;5.95;;;3.25;;
69779;SDS011;57052;55.602;38.096;2023-06-22T11:28:46;7.57;;;3.20;;
69779;SDS011;57052;55.602;38.096;2023-06-22T11:31:12;6.40;;;3.03;;
69779;SDS011;57052;55.602;38.096;2023-06-22T11:33:38;9.57;;;3.10;;
69779;SDS011;57052;55.602;38.096;2023-06-22T11:36:04;6.78;;;3.20;;
69779;SDS011;57052;55.602;38.096;2023-06-22T11:38:30;6.07;;;3.28;;
69779;SDS011;57052;55.602;38.096;2023-06-22T11:40:59;5.32;;;3.10;;
69779;SDS011;57052;55.602;38.096;2023-06-22T11:43:25;7.85;;;3.45;;
69779;SDS011;57052;55.602;38.096;2023-06-22T11:45:51;5.85;;;3.00;;
69779;SDS011;57052;55.602;38.096;2023-06-22T11:48:17;5.90;;;3.20;;
69779;SDS011;57052;55.602;38.096;2023-06-22T11:50:42;4.70;;;3.78;;
69779;SDS011;57052;55.602;38.096;2023-06-22T11:53:08;6.68;;;3.40;;
69779;SDS011;57052;55.602;38.096;2023-06-22T11:55:33;5.90;;;2.92;;
69779;SDS011;57052;55.602;38.096;2023-06-22T11:57:59;5.53;;;3.22;;
69779;SDS011;57052;55.602;38.096;2023-06-22T12:00:28;7.97;;;3.40;;
69779;SDS011;57052;55.602;38.096;2023-06-22T12:02:55;5.78;;;3.20;;
69779;SDS011;57052;55.602;38.096;2023-06-22T12:05:21;5.82;;;3.80;;
69779;SDS011;57052;55.602;38.096;2023-06-22T12:07:48;5.03;;;3.20;;
69779;SDS011;57052;55.602;38.096;2023-06-22T12:10:14;5.38;;;3.50;;
69779;SDS011;57052;55.602;38.096;2023-06-22T12:12:40;5.35;;;3.47;;
69779;SDS011;57052;55.602;38.096;2023-06-22T12:15:07;8.45;;;3.95;;
69779;SDS011;57052;55.602;38.096;2023-06-22T12:17:34;8.10;;;3.50;;
69779;SDS011;57052;55.602;38.096;2023-06-22T12:20:00;6.88;;;3.90;;
69779;SDS011;57052;55.602;38.096;2023-06-22T12:22:25;7.57;;;3.60;;
69779;SDS011;57052;55.602;38.096;2023-06-22T12:24:51;9.18;;;3.75;;
69779;SDS011;57052;55.602;38.096;2023-06-22T12:27:17;6.78;;;3.63;;
69779;SDS011;57052;55.602;38.096;2023-06-22T12:29:45;6.68;;;3.78;;
69779;SDS011;57052;55.602;38.096;2023-06-22T12:32:12;6.75;;;3.60;;
69779;SDS011;57052;55.602;38.096;2023-06-22T12:34:39;6.63;;;3.67;;
69779;SDS011;57052;55.602;38.096;2023-06-22T12:37:05;6.22;;;3.70;;
69779;SDS011;57052;55.602;38.096;2023-06-22T12:39:31;5.75;;;4.15;;
69779;SDS011;57052;55.602;38.096;2023-06-22T12:41:57;6.78;;;3.78;;
69779;SDS011;57052;55.602;38.096;2023-06-22T12:44:23;10.77;;;4.38;;
69779;SDS011;57052;55.602;38.096;2023-06-22T12:46:49;5.25;;;3.85;;
69779;SDS011;57052;55.602;38.096;2023-06-22T12:49:15;7.70;;;4.47;;
69779;SDS011;57052;55.602;38.096;2023-06-22T12:51:41;9.50;;;4.40;;
69779;SDS011;57052;55.602;38.096;2023-06-22T12:54:08;7.20;;;4.45;;
69779;SDS011;57052;55.602;38.096;2023-06-22T12:56:34;7.20;;;4.07;;
69779;SDS011;57052;55.602;38.096;2023-06-22T12:59:00;7.13;;;3.97;;
69779;SDS011;57052;55.602;38.096;2023-06-22T13:01:28;6.55;;;3.83;;
69779;SDS011;57052;55.602;38.096;2023-06-22T13:03:56;9.23;;;3.83;;
69779;SDS011;57052;55.602;38.096;2023-06-22T13:06:21;6.47;;;4.10;;
69779;SDS011;57052;55.602;38.096;2023-06-22T13:08:47;5.63;;;3.78;;
69779;SDS011;57052;55.602;38.096;2023-06-22T13:11:13;9.02;;;4.28;;
69779;SDS011;57052;55.602;38.096;2023-06-22T13:13:39;7.88;;;4.45;;
69779;SDS011;57052;55.602;38.096;2023-06-22T13:16:05;10.75;;;5.07;;
69779;SDS011;57052;55.602;38.096;2023-06-22T13:18:32;7.00;;;3.97;;
69779;SDS011;57052;55.602;38.096;2023-06-22T13:20:59;6.22;;;4.25;;
69779;SDS011;57052;55.602;38.096;2023-06-22T13:23:25;5.70;;;3.92;;
69779;SDS011;57052;55.602;38.096;2023-06-22T13:25:51;6.30;;;4.20;;
69779;SDS011;57052;55.602;38.096;2023-06-22T13:28:16;7.15;;;4.57;;
69779;SDS011;57052;55.602;38.096;2023-06-22T13:30:42;8.15;;;4.32;;
69779;SDS011;57052;55.602;38.096;2023-06-22T13:33:10;8.40;;;4.30;;
69779;SDS011;57052;55.602;38.096;2023-06-22T13:35:36;7.78;;;4.22;;
69779;SDS011;57052;55.602;38.096;2023-06-22T13:38:03;7.72;;;4.35;;
69779;SDS011;57052;55.602;38.096;2023-06-22T13:40:29;6.93;;;4.78;;
69779;SDS011;57052;55.602;38.096;2023-06-22T13:42:55;9.75;;;4.97;;
69779;SDS011;57052;55.602;38.096;2023-06-22T13:45:21;7.68;;;5.07;;
69779;SDS011;57052;55.602;38.096;2023-06-22T13:47:47;6.68;;;4.55;;
69779;SDS011;57052;55.602;38.096;2023-06-22T13:50:12;8.95;;;4.40;;
69779;SDS011;57052;55.602;38.096;2023-06-22T13:52:38;9.32;;;4.90;;
69779;SDS011;57052;55.602;38.096;2023-06-22T13:55:05;7.68;;;4.90;;
69779;SDS011;57052;55.602;38.096;2023-06-22T13:57:32;9.57;;;4.45;;
69779;SDS011;57052;55.602;38.096;2023-06-22T13:59:59;9.13;;;3.97;;
69779;SDS011;57052;55.602;38.096;2023-06-22T14:02:25;8.45;;;4.40;;
69779;SDS011;57052;55.602;38.096;2023-06-22T14:04:53;8.45;;;4.78;;
69779;SDS011;57052;55.602;38.096;2023-06-22T14:07:19;6.85;;;4.68;;
69779;SDS011;57052;55.602;38.096;2023-06-22T14:09:46;6.85;;;4.40;;
69779;SDS011;57052;55.602;38.096;2023-06-22T14:12:12;6.57;;;4.18;;
69779;SDS011;57052;55.602;38.096;2023-06-22T14:14:38;7.65;;;4.35;;
69779;SDS011;57052;55.602;38.096;2023-06-22T14:17:04;9.52;;;4.40;;
69779;SDS011;57052;55.602;38.096;2023-06-22T14:19:30;7.60;;;4.18;;
69779;SDS011;57052;55.602;38.096;2023-06-22T14:21:56;5.63;;;4.25;;
69779;SDS011;57052;55.602;38.096;2023-06-22T14:24:22;7.10;;;4.20;;
69779;SDS011;57052;55.602;38.096;2023-06-22T14:26:49;6.30;;;4.38;;